Time;durP1;ratioP1;P1;durP2;ratioP2;P2;SDS_P1;SDS_P2;PMS_P1;PMS_P2;Temp;Humidity;BMP_temperature;BMP_pressure;BME280_temperature;BME280_humidity;BME280_pressure;Samples;Min_cycle;Max_cycle;Signal;HPM_P1;HPM_P2
2023/05/09 00:01:42;;;;;;;3.55;1.50;;;;;;;;;;21008274;28;20486;-66
2023/05/09 00:11:43;;;;;;;7.65;1.00;;;;;;;;;;21007720;28;20486;-66
2023/05/09 00:21:45;;;;;;;2.58;0.90;;;;;;;;;;21006671;28;20514;-66
2023/05/09 00:31:46;;;;;;;3.25;1.05;;;;;;;;;;21006121;28;20036;-67
2023/05/09 00:41:47;;;;;;;1.90;0.80;;;;;;;;;;21005367;28;20071;-67
2023/05/09 00:51:48;;;;;;;4.47;1.55;;;;;;;;;;21004119;28;20070;-67
2023/05/09 01:01:50;;;;;;;1.77;0.80;;;;;;;;;;21003709;28;20444;-67
2023/05/09 01:11:57;;;;;;;4.78;0.75;;;;;;;;;;21002714;28;20049;-66
2023/05/09 01:21:58;;;;;;;1.85;0.70;;;;;;;;;;21001586;28;20048;-67
2023/05/09 01:32:02;;;;;;;1.45;0.63;;;;;;;;;;21001198;28;20505;-66
2023/05/09 01:42:04;;;;;;;1.38;0.95;;;;;;;;;;20999324;28;20060;-67
2023/05/09 01:52:18;;;;;;;2.95;0.70;;;;;;;;;;20998455;28;20047;-66
2023/05/09 02:02:19;;;;;;;2.50;0.77;;;;;;;;;;20998368;28;20041;-65
2023/05/09 02:12:20;;;;;;;4.95;0.90;;;;;;;;;;20997103;28;20182;-67
2023/05/09 02:22:21;;;;;;;2.50;1.27;;;;;;;;;;20996777;28;20174;-67
2023/05/09 02:32:25;;;;;;;3.30;1.00;;;;;;;;;;20997485;28;20444;-66
2023/05/09 02:42:28;;;;;;;1.75;0.70;;;;;;;;;;20997166;28;20048;-66
2023/05/09 02:52:29;;;;;;;2.47;0.98;;;;;;;;;;20996772;28;20528;-67
2023/05/09 03:02:31;;;;;;;1.80;0.90;;;;;;;;;;20996364;28;20091;-66
2023/05/09 03:12:32;;;;;;;1.67;0.98;;;;;;;;;;21006485;28;20174;-66
2023/05/09 03:22:33;;;;;;;4.35;1.00;;;;;;;;;;21011071;28;20056;-66
2023/05/09 03:32:34;;;;;;;2.00;1.20;;;;;;;;;;21010542;28;20515;-66
2023/05/09 03:42:35;;;;;;;2.80;0.93;;;;;;;;;;21010039;28;20056;-66
2023/05/09 03:52:36;;;;;;;4.88;1.83;;;;;;;;;;21009093;28;20048;-66
2023/05/09 04:02:37;;;;;;;2.80;1.00;;;;;;;;;;21007272;28;20052;-66
2023/05/09 04:12:38;;;;;;;4.78;1.08;;;;;;;;;;21008199;28;20583;-67
2023/05/09 04:22:40;;;;;;;3.65;1.10;;;;;;;;;;21005862;28;20045;-66
2023/05/09 04:32:44;;;;;;;4.55;1.00;;;;;;;;;;21006248;28;20048;-66
2023/05/09 04:42:45;;;;;;;3.90;1.35;;;;;;;;;;21005381;28;20040;-67
2023/05/09 04:52:47;;;;;;;5.18;0.82;;;;;;;;;;21004647;28;20041;-67
2023/05/09 05:02:48;;;;;;;3.10;1.00;;;;;;;;;;21004675;28;20415;-67
2023/05/09 05:12:49;;;;;;;4.60;1.00;;;;;;;;;;21002463;28;20409;-67
2023/05/09 05:22:50;;;;;;;2.28;0.90;;;;;;;;;;21000976;28;20501;-66
2023/05/09 05:32:51;;;;;;;4.18;1.40;;;;;;;;;;20998519;28;20052;-66
2023/05/09 05:42:53;;;;;;;6.45;1.40;;;;;;;;;;21000203;28;20482;-66
2023/05/09 05:52:54;;;;;;;1.92;1.00;;;;;;;;;;20999544;28;20425;-66
2023/05/09 06:02:55;;;;;;;3.10;0.90;;;;;;;;;;20998967;28;20456;-66
2023/05/09 06:12:56;;;;;;;2.95;1.30;;;;;;;;;;20998234;28;20151;-66
2023/05/09 06:22:57;;;;;;;4.80;1.00;;;;;;;;;;20997148;28;20048;-67
2023/05/09 06:32:58;;;;;;;4.35;0.93;;;;;;;;;;20996863;28;20068;-66
2023/05/09 06:43:00;;;;;;;2.88;0.80;;;;;;;;;;20995215;28;20045;-67
2023/05/09 06:53:01;;;;;;;5.55;1.17;;;;;;;;;;20995010;28;20044;-67
2023/05/09 07:03:02;;;;;;;6.13;1.20;;;;;;;;;;20994880;28;20091;-67
2023/05/09 07:13:03;;;;;;;6.22;1.20;;;;;;;;;;20994983;28;20073;-66
2023/05/09 07:23:04;;;;;;;3.80;0.75;;;;;;;;;;20993630;28;20056;-67
2023/05/09 07:33:06;;;;;;;3.10;0.90;;;;;;;;;;20992769;28;20044;-67
2023/05/09 07:43:07;;;;;;;3.58;0.70;;;;;;;;;;20994328;28;20044;-67
2023/05/09 07:53:08;;;;;;;0.93;0.50;;;;;;;;;;20992903;28;20084;-67
2023/05/09 08:03:09;;;;;;;4.20;1.00;;;;;;;;;;21006576;28;20088;-67
2023/05/09 08:13:10;;;;;;;4.60;1.38;;;;;;;;;;21005070;28;20045;-68
2023/05/09 08:23:12;;;;;;;7.47;3.83;;;;;;;;;;21005599;28;20056;-68
2023/05/09 08:33:13;;;;;;;1.67;1.05;;;;;;;;;;21005225;28;20044;-68
2023/05/09 08:43:18;;;;;;;1.63;0.68;;;;;;;;;;21005652;28;20036;-66
2023/05/09 08:53:20;;;;;;;3.28;1.10;;;;;;;;;;21004560;28;20076;-68
2023/05/09 09:03:25;;;;;;;0.82;0.45;;;;;;;;;;21003616;28;20154;-67
2023/05/09 09:13:26;;;;;;;4.20;0.85;;;;;;;;;;21002574;28;20082;-68
2023/05/09 09:23:28;;;;;;;2.80;0.63;;;;;;;;;;21000698;28;20161;-61
2023/05/09 09:33:30;;;;;;;6.88;1.02;;;;;;;;;;20999755;28;20481;-62
2023/05/09 09:43:31;;;;;;;10.13;5.88;;;;;;;;;;20999306;28;20048;-69
2023/05/09 09:53:38;;;;;;;3.72;0.90;;;;;;;;;;20998879;28;20037;-72
2023/05/09 10:03:39;;;;;;;;;;;;;;;;;;20997159;28;20091;-74
2023/05/09 10:13:41;;;;;;;2.58;0.50;;;;;;;;;;20995797;28;19972;-72
2023/05/09 10:23:46;;;;;;;2.45;0.60;;;;;;;;;;20994717;28;20079;-71
2023/05/09 10:33:48;;;;;;;4.25;0.63;;;;;;;;;;20995544;28;20043;-68
2023/05/09 10:43:49;;;;;;;8.20;0.63;;;;;;;;;;20993997;28;20478;-61
2023/05/09 10:53:50;;;;;;;0.90;0.43;;;;;;;;;;20994588;28;20055;-69
2023/05/09 11:03:53;;;;;;;2.15;0.50;;;;;;;;;;20995203;28;20493;-69
2023/05/09 11:13:56;;;;;;;4.93;2.42;;;;;;;;;;20994316;28;20047;-70
2023/05/09 11:23:57;;;;;;;3.08;0.68;;;;;;;;;;20992243;28;20145;-67
2023/05/09 11:34:03;;;;;;;1.05;0.30;;;;;;;;;;21003723;28;20041;-68
2023/05/09 11:44:11;;;;;;;5.67;0.87;;;;;;;;;;21008344;28;20566;-68
2023/05/09 11:54:13;;;;;;;3.50;0.90;;;;;;;;;;21006284;28;20049;-65
2023/05/09 12:04:15;;;;;;;4.93;0.80;;;;;;;;;;21006582;28;20079;-65
2023/05/09 12:14:29;;;;;;;5.30;0.80;;;;;;;;;;21004261;28;20044;-65
2023/05/09 12:24:30;;;;;;;9.25;0.88;;;;;;;;;;21006178;28;20513;-64
2023/05/09 12:34:32;;;;;;;2.88;0.68;;;;;;;;;;21004718;28;20071;-65
2023/05/09 12:44:33;;;;;;;2.08;0.60;;;;;;;;;;21004179;28;20036;-65
2023/05/09 12:54:34;;;;;;;3.65;0.75;;;;;;;;;;21004214;28;20477;-65
2023/05/09 13:04:36;;;;;;;5.72;0.70;;;;;;;;;;21002860;28;20383;-65
2023/05/09 13:14:37;;;;;;;1.75;0.60;;;;;;;;;;21002676;28;20048;-64
2023/05/09 13:24:38;;;;;;;1.42;0.85;;;;;;;;;;21001105;28;20044;-65
2023/05/09 13:34:39;;;;;;;2.35;0.30;;;;;;;;;;21001025;28;20048;-64
2023/05/09 13:44:40;;;;;;;1.75;0.32;;;;;;;;;;20999741;28;20044;-64
2023/05/09 13:54:42;;;;;;;0.60;0.25;;;;;;;;;;20997210;28;20111;-63
2023/05/09 14:04:43;;;;;;;3.28;2.10;;;;;;;;;;20998155;28;20045;-65
2023/05/09 14:14:44;;;;;;;1.85;0.30;;;;;;;;;;20997437;28;20371;-65
2023/05/09 14:24:45;;;;;;;2.15;0.50;;;;;;;;;;20996958;28;20561;-64
2023/05/09 14:34:48;;;;;;;3.97;0.52;;;;;;;;;;20997263;28;20050;-64
2023/05/09 14:44:49;;;;;;;3.88;0.60;;;;;;;;;;20996844;28;20048;-65
2023/05/09 14:54:50;;;;;;;3.88;2.55;;;;;;;;;;20996274;28;20044;-64
2023/05/09 15:04:51;;;;;;;3.15;0.65;;;;;;;;;;20999591;28;20071;-65
2023/05/09 15:14:54;;;;;;;1.15;0.80;;;;;;;;;;21012095;28;20405;-64
2023/05/09 15:24:55;;;;;;;19.35;12.30;;;;;;;;;;21010948;28;20098;-68
2023/05/09 15:34:56;;;;;;;2.92;0.50;;;;;;;;;;21011179;28;20073;-60
2023/05/09 15:44:57;;;;;;;2.35;0.57;;;;;;;;;;21006060;28;20097;-62
2023/05/09 15:54:59;;;;;;;1.05;0.47;;;;;;;;;;20929220;28;20040;-68
2023/05/09 16:05:00;;;;;;;1.30;0.75;;;;;;;;;;20922142;28;20462;-64
2023/05/09 16:15:01;;;;;;;4.05;0.50;;;;;;;;;;20913348;28;20482;-63
2023/05/09 16:25:03;;;;;;;0.85;0.22;;;;;;;;;;20919594;28;20105;-63
2023/05/09 16:35:04;;;;;;;1.20;0.47;;;;;;;;;;20923369;28;20471;-63
2023/05/09 16:45:06;;;;;;;1.23;0.47;;;;;;;;;;20922262;28;20045;-64
2023/05/09 16:55:08;;;;;;;0.35;0.20;;;;;;;;;;20920155;28;20076;-62
2023/05/09 17:05:09;;;;;;;2.95;0.55;;;;;;;;;;20918754;28;20045;-68
2023/05/09 17:15:11;;;;;;;0.95;0.30;;;;;;;;;;20919264;28;20041;-62
2023/05/09 17:25:12;;;;;;;1.10;0.30;;;;;;;;;;20918384;28;20084;-61
2023/05/09 17:35:13;;;;;;;2.35;0.50;;;;;;;;;;20916918;28;20049;-72
2023/05/09 17:45:15;;;;;;;0.73;0.20;;;;;;;;;;20916676;28;20158;-61
2023/05/09 17:55:16;;;;;;;0.93;0.30;;;;;;;;;;20915722;28;20037;-61
2023/05/09 18:05:17;;;;;;;1.27;0.60;;;;;;;;;;20915606;28;20463;-61
2023/05/09 18:15:19;;;;;;;2.47;0.30;;;;;;;;;;20914060;28;20095;-62
2023/05/09 18:25:20;;;;;;;1.42;0.40;;;;;;;;;;20906491;28;20061;-62
2023/05/09 18:35:21;;;;;;;3.97;0.52;;;;;;;;;;20909666;28;20409;-64
2023/05/09 18:45:23;;;;;;;2.35;0.30;;;;;;;;;;20912059;28;20510;-62
2023/05/09 18:55:24;;;;;;;0.93;0.40;;;;;;;;;;20912880;28;20037;-64
2023/05/09 19:05:26;;;;;;;3.28;0.70;;;;;;;;;;20913090;28;20482;-63
2023/05/09 19:15:28;;;;;;;2.28;0.60;;;;;;;;;;20912728;28;20120;-63
2023/05/09 19:25:32;;;;;;;1.40;0.50;;;;;;;;;;20912961;28;20442;-62
2023/05/09 19:35:35;;;;;;;1.67;0.55;;;;;;;;;;20911594;28;20041;-63
2023/05/09 19:45:36;;;;;;;3.95;0.73;;;;;;;;;;20911088;28;20056;-63
2023/05/09 19:55:37;;;;;;;6.03;1.00;;;;;;;;;;20921836;28;20067;-64
2023/05/09 20:05:39;;;;;;;3.45;0.60;;;;;;;;;;20925057;28;20075;-63
2023/05/09 20:15:40;;;;;;;3.58;0.50;;;;;;;;;;20924660;28;20123;-64
2023/05/09 20:25:41;;;;;;;1.50;0.60;;;;;;;;;;20923453;28;20154;-64
2023/05/09 20:35:42;;;;;;;3.42;0.50;;;;;;;;;;20923101;28;20118;-63
2023/05/09 20:45:43;;;;;;;2.53;0.80;;;;;;;;;;20922170;28;20397;-63
2023/05/09 20:55:44;;;;;;;5.38;1.10;;;;;;;;;;20921434;28;20452;-63
2023/05/09 21:05:46;;;;;;;2.88;1.00;;;;;;;;;;20919938;28;20401;-64
2023/05/09 21:15:49;;;;;;;2.13;0.40;;;;;;;;;;20919415;28;20383;-64
2023/05/09 21:25:51;;;;;;;1.83;1.02;;;;;;;;;;20918945;28;20445;-64
2023/05/09 21:35:52;;;;;;;2.97;0.88;;;;;;;;;;20916853;28;20045;-63
2023/05/09 21:45:53;;;;;;;3.65;0.63;;;;;;;;;;20915829;28;20053;-64
2023/05/09 21:55:54;;;;;;;6.38;0.80;;;;;;;;;;20915627;28;20048;-63
2023/05/09 22:05:55;;;;;;;2.38;0.50;;;;;;;;;;20914195;28;20052;-63
2023/05/09 22:15:56;;;;;;;3.47;0.90;;;;;;;;;;20912577;28;20045;-64
2023/05/09 22:25:57;;;;;;;1.42;0.75;;;;;;;;;;20913271;28;20056;-64
2023/05/09 22:35:58;;;;;;;3.92;0.73;;;;;;;;;;20912073;28;20037;-65
2023/05/09 22:46:02;;;;;;;3.53;0.65;;;;;;;;;;20912648;28;20133;-64
2023/05/09 22:56:04;;;;;;;1.30;0.40;;;;;;;;;;20914061;28;20067;-63
2023/05/09 23:06:05;;;;;;;1.65;0.68;;;;;;;;;;20913727;28;20053;-64
2023/05/09 23:16:06;;;;;;;2.75;0.70;;;;;;;;;;20913324;28;20049;-64
2023/05/09 23:26:08;;;;;;;2.03;0.40;;;;;;;;;;20916997;28;20072;-63
2023/05/09 23:36:10;;;;;;;0.95;0.30;;;;;;;;;;20928563;28;20059;-64
2023/05/09 23:46:11;;;;;;;2.55;0.20;;;;;;;;;;20927732;28;20076;-63
2023/05/09 23:56:12;;;;;;;2.95;0.47;;;;;;;;;;20926667;28;20041;-63
